sensor_id;sensor_type;location;lat;lon;timestamp;P1;durP1;ratioP1;P2;durP2;ratioP2
1651;SDS011;823;49.028;8.454;2022-07-22T00:03:11;8.53;;;6.07;;
1651;SDS011;823;49.028;8.454;2022-07-22T00:08:11;9.93;;;6.43;;
1651;SDS011;823;49.028;8.454;2022-07-22T00:13:12;11.83;;;6.97;;
1651;SDS011;823;49.028;8.454;2022-07-22T00:18:12;11.87;;;7.17;;
1651;SDS011;823;49.028;8.454;2022-07-22T00:23:13;13.47;;;7.20;;
1651;SDS011;823;49.028;8.454;2022-07-22T00:28:13;16.40;;;7.50;;
1651;SDS011;823;49.028;8.454;2022-07-22T00:33:13;17.97;;;7.50;;
1651;SDS011;823;49.028;8.454;2022-07-22T00:38:14;13.33;;;6.97;;
1651;SDS011;823;49.028;8.454;2022-07-22T00:43:14;18.57;;;8.40;;
1651;SDS011;823;49.028;8.454;2022-07-22T00:48:15;18.13;;;7.23;;
1651;SDS011;823;49.028;8.454;2022-07-22T00:53:15;13.33;;;7.37;;
1651;SDS011;823;49.028;8.454;2022-07-22T00:58:15;12.80;;;7.47;;
1651;SDS011;823;49.028;8.454;2022-07-22T01:03:16;13.10;;;8.80;;
1651;SDS011;823;49.028;8.454;2022-07-22T01:08:16;12.77;;;8.30;;
1651;SDS011;823;49.028;8.454;2022-07-22T01:13:17;8.73;;;6.67;;
1651;SDS011;823;49.028;8.454;2022-07-22T01:18:17;12.07;;;6.77;;
1651;SDS011;823;49.028;8.454;2022-07-22T01:23:18;13.75;;;7.38;;
1651;SDS011;823;49.028;8.454;2022-07-22T01:28:18;10.85;;;7.63;;
1651;SDS011;823;49.028;8.454;2022-07-22T01:33:19;11.63;;;7.97;;
1651;SDS011;823;49.028;8.454;2022-07-22T01:38:20;13.27;;;8.30;;
1651;SDS011;823;49.028;8.454;2022-07-22T01:43:20;12.30;;;9.00;;
1651;SDS011;823;49.028;8.454;2022-07-22T01:48:21;15.60;;;8.40;;
1651;SDS011;823;49.028;8.454;2022-07-22T01:53:22;11.97;;;7.87;;
1651;SDS011;823;49.028;8.454;2022-07-22T01:58:22;13.38;;;8.15;;
1651;SDS011;823;49.028;8.454;2022-07-22T02:03:23;13.00;;;7.68;;
1651;SDS011;823;49.028;8.454;2022-07-22T02:08:23;15.32;;;8.73;;
1651;SDS011;823;49.028;8.454;2022-07-22T02:13:23;15.17;;;8.63;;
1651;SDS011;823;49.028;8.454;2022-07-22T02:18:24;14.47;;;8.93;;
1651;SDS011;823;49.028;8.454;2022-07-22T02:23:25;18.63;;;9.20;;
1651;SDS011;823;49.028;8.454;2022-07-22T02:28:25;12.68;;;8.32;;
1651;SDS011;823;49.028;8.454;2022-07-22T02:33:26;13.70;;;9.10;;
1651;SDS011;823;49.028;8.454;2022-07-22T02:38:26;17.92;;;8.50;;
1651;SDS011;823;49.028;8.454;2022-07-22T02:43:26;12.90;;;8.30;;
1651;SDS011;823;49.028;8.454;2022-07-22T02:48:27;14.73;;;8.27;;
1651;SDS011;823;49.028;8.454;2022-07-22T02:53:27;13.83;;;8.80;;
1651;SDS011;823;49.028;8.454;2022-07-22T02:58:27;14.47;;;8.93;;
1651;SDS011;823;49.028;8.454;2022-07-22T03:03:28;17.92;;;9.20;;
1651;SDS011;823;49.028;8.454;2022-07-22T03:08:28;14.37;;;8.93;;
1651;SDS011;823;49.028;8.454;2022-07-22T03:13:28;16.90;;;8.93;;
1651;SDS011;823;49.028;8.454;2022-07-22T03:18:29;14.63;;;8.43;;
1651;SDS011;823;49.028;8.454;2022-07-22T03:23:29;16.63;;;8.47;;
1651;SDS011;823;49.028;8.454;2022-07-22T03:28:29;14.73;;;8.00;;
1651;SDS011;823;49.028;8.454;2022-07-22T03:33:30;14.47;;;8.73;;
1651;SDS011;823;49.028;8.454;2022-07-22T03:38:30;14.98;;;8.90;;
1651;SDS011;823;49.028;8.454;2022-07-22T03:43:31;20.03;;;8.77;;
1651;SDS011;823;49.028;8.454;2022-07-22T03:48:31;20.40;;;8.70;;
1651;SDS011;823;49.028;8.454;2022-07-22T03:53:32;15.20;;;9.40;;
1651;SDS011;823;49.028;8.454;2022-07-22T03:58:35;13.60;;;8.47;;
1651;SDS011;823;49.028;8.454;2022-07-22T04:03:35;14.93;;;9.20;;
1651;SDS011;823;49.028;8.454;2022-07-22T04:08:36;13.73;;;8.00;;
1651;SDS011;823;49.028;8.454;2022-07-22T04:13:36;15.20;;;8.87;;
1651;SDS011;823;49.028;8.454;2022-07-22T04:18:37;13.10;;;7.70;;
1651;SDS011;823;49.028;8.454;2022-07-22T04:23:37;16.10;;;8.57;;
1651;SDS011;823;49.028;8.454;2022-07-22T04:28:39;15.63;;;8.70;;
1651;SDS011;823;49.028;8.454;2022-07-22T04:33:40;14.60;;;9.23;;
1651;SDS011;823;49.028;8.454;2022-07-22T04:38:40;13.60;;;8.23;;
1651;SDS011;823;49.028;8.454;2022-07-22T04:43:41;14.93;;;8.37;;
1651;SDS011;823;49.028;8.454;2022-07-22T04:48:41;15.53;;;8.90;;
1651;SDS011;823;49.028;8.454;2022-07-22T04:53:41;15.10;;;8.80;;
1651;SDS011;823;49.028;8.454;2022-07-22T04:58:42;15.35;;;8.15;;
1651;SDS011;823;49.028;8.454;2022-07-22T05:03:42;14.13;;;8.48;;
1651;SDS011;823;49.028;8.454;2022-07-22T05:08:43;15.40;;;9.20;;
1651;SDS011;823;49.028;8.454;2022-07-22T05:13:43;15.87;;;9.20;;
1651;SDS011;823;49.028;8.454;2022-07-22T05:18:44;11.90;;;8.15;;
1651;SDS011;823;49.028;8.454;2022-07-22T05:23:44;18.65;;;8.18;;
1651;SDS011;823;49.028;8.454;2022-07-22T05:28:44;15.63;;;8.55;;
1651;SDS011;823;49.028;8.454;2022-07-22T05:33:45;12.63;;;7.83;;
1651;SDS011;823;49.028;8.454;2022-07-22T05:38:45;11.70;;;8.27;;
1651;SDS011;823;49.028;8.454;2022-07-22T05:43:45;14.57;;;8.20;;
1651;SDS011;823;49.028;8.454;2022-07-22T05:48:46;13.48;;;8.25;;
1651;SDS011;823;49.028;8.454;2022-07-22T05:53:46;12.63;;;7.63;;
1651;SDS011;823;49.028;8.454;2022-07-22T05:58:46;21.80;;;9.03;;
1651;SDS011;823;49.028;8.454;2022-07-22T06:03:47;16.58;;;8.85;;
1651;SDS011;823;49.028;8.454;2022-07-22T06:08:47;11.23;;;7.68;;
1651;SDS011;823;49.028;8.454;2022-07-22T06:13:47;14.17;;;8.53;;
1651;SDS011;823;49.028;8.454;2022-07-22T06:18:48;13.75;;;8.18;;
1651;SDS011;823;49.028;8.454;2022-07-22T06:23:48;10.90;;;7.30;;
1651;SDS011;823;49.028;8.454;2022-07-22T06:28:48;19.92;;;8.38;;
1651;SDS011;823;49.028;8.454;2022-07-22T06:33:48;12.57;;;7.93;;
1651;SDS011;823;49.028;8.454;2022-07-22T06:38:49;15.40;;;9.30;;
1651;SDS011;823;49.028;8.454;2022-07-22T06:43:49;11.90;;;7.40;;
1651;SDS011;823;49.028;8.454;2022-07-22T06:48:50;13.32;;;7.65;;
1651;SDS011;823;49.028;8.454;2022-07-22T06:53:50;9.73;;;7.20;;
1651;SDS011;823;49.028;8.454;2022-07-22T06:58:50;14.53;;;8.40;;
1651;SDS011;823;49.028;8.454;2022-07-22T07:03:51;12.70;;;7.77;;
1651;SDS011;823;49.028;8.454;2022-07-22T07:08:51;12.63;;;7.70;;
1651;SDS011;823;49.028;8.454;2022-07-22T07:13:52;12.17;;;7.40;;
1651;SDS011;823;49.028;8.454;2022-07-22T07:18:52;12.90;;;8.23;;
1651;SDS011;823;49.028;8.454;2022-07-22T07:23:52;14.13;;;8.70;;
1651;SDS011;823;49.028;8.454;2022-07-22T07:28:53;13.80;;;8.77;;
1651;SDS011;823;49.028;8.454;2022-07-22T07:33:53;13.80;;;8.43;;
1651;SDS011;823;49.028;8.454;2022-07-22T07:38:54;16.43;;;7.20;;
1651;SDS011;823;49.028;8.454;2022-07-22T07:43:54;10.17;;;7.17;;
1651;SDS011;823;49.028;8.454;2022-07-22T07:48:55;12.53;;;7.70;;
1651;SDS011;823;49.028;8.454;2022-07-22T07:53:55;13.50;;;9.00;;
1651;SDS011;823;49.028;8.454;2022-07-22T07:58:55;16.13;;;7.10;;
1651;SDS011;823;49.028;8.454;2022-07-22T08:03:56;12.33;;;8.17;;
1651;SDS011;823;49.028;8.454;2022-07-22T08:08:56;12.90;;;7.53;;
1651;SDS011;823;49.028;8.454;2022-07-22T08:13:57;12.70;;;7.80;;
1651;SDS011;823;49.028;8.454;2022-07-22T08:18:57;12.27;;;7.30;;
1651;SDS011;823;49.028;8.454;2022-07-22T08:23:57;13.23;;;7.00;;
1651;SDS011;823;49.028;8.454;2022-07-22T08:28:58;10.20;;;6.50;;
1651;SDS011;823;49.028;8.454;2022-07-22T08:33:58;11.00;;;6.53;;
1651;SDS011;823;49.028;8.454;2022-07-22T08:39:00;8.87;;;5.80;;
1651;SDS011;823;49.028;8.454;2022-07-22T08:44:00;10.40;;;6.03;;
1651;SDS011;823;49.028;8.454;2022-07-22T08:49:03;9.17;;;7.03;;
1651;SDS011;823;49.028;8.454;2022-07-22T08:54:03;9.70;;;6.83;;
1651;SDS011;823;49.028;8.454;2022-07-22T08:59:04;8.17;;;6.00;;
1651;SDS011;823;49.028;8.454;2022-07-22T09:04:04;10.70;;;6.37;;
1651;SDS011;823;49.028;8.454;2022-07-22T09:09:05;9.20;;;6.87;;
1651;SDS011;823;49.028;8.454;2022-07-22T09:14:06;9.80;;;7.60;;
1651;SDS011;823;49.028;8.454;2022-07-22T09:19:06;12.03;;;7.10;;
1651;SDS011;823;49.028;8.454;2022-07-22T09:24:07;13.70;;;7.30;;
1651;SDS011;823;49.028;8.454;2022-07-22T09:29:09;8.20;;;5.80;;
1651;SDS011;823;49.028;8.454;2022-07-22T09:34:10;11.07;;;6.30;;
1651;SDS011;823;49.028;8.454;2022-07-22T09:39:27;9.10;;;5.60;;
1651;SDS011;823;49.028;8.454;2022-07-22T09:44:29;8.77;;;5.67;;
1651;SDS011;823;49.028;8.454;2022-07-22T09:49:30;8.70;;;6.63;;
1651;SDS011;823;49.028;8.454;2022-07-22T09:54:32;11.03;;;5.87;;
1651;SDS011;823;49.028;8.454;2022-07-22T09:59:33;8.33;;;5.90;;
1651;SDS011;823;49.028;8.454;2022-07-22T10:04:33;11.20;;;6.10;;
1651;SDS011;823;49.028;8.454;2022-07-22T10:09:35;8.00;;;5.30;;
1651;SDS011;823;49.028;8.454;2022-07-22T10:14:37;7.93;;;6.00;;
1651;SDS011;823;49.028;8.454;2022-07-22T10:19:38;10.73;;;6.50;;
1651;SDS011;823;49.028;8.454;2022-07-22T10:24:53;8.90;;;5.37;;
1651;SDS011;823;49.028;8.454;2022-07-22T10:29:59;9.93;;;6.70;;
1651;SDS011;823;49.028;8.454;2022-07-22T10:40:16;11.23;;;6.10;;
1651;SDS011;823;49.028;8.454;2022-07-22T10:45:23;7.67;;;5.73;;
1651;SDS011;823;49.028;8.454;2022-07-22T10:55:35;9.83;;;6.90;;
1651;SDS011;823;49.028;8.454;2022-07-22T11:00:36;8.83;;;5.43;;
1651;SDS011;823;49.028;8.454;2022-07-22T11:05:37;9.90;;;5.90;;
1651;SDS011;823;49.028;8.454;2022-07-22T11:10:45;9.67;;;5.80;;
1651;SDS011;823;49.028;8.454;2022-07-22T11:15:47;7.83;;;5.90;;
1651;SDS011;823;49.028;8.454;2022-07-22T11:20:48;8.40;;;5.90;;
1651;SDS011;823;49.028;8.454;2022-07-22T11:25:48;9.10;;;5.50;;
1651;SDS011;823;49.028;8.454;2022-07-22T11:31:04;7.47;;;6.17;;
1651;SDS011;823;49.028;8.454;2022-07-22T11:36:06;17.10;;;8.43;;
1651;SDS011;823;49.028;8.454;2022-07-22T11:41:09;7.83;;;6.13;;
1651;SDS011;823;49.028;8.454;2022-07-22T11:46:10;8.60;;;6.37;;
1651;SDS011;823;49.028;8.454;2022-07-22T11:51:12;8.03;;;5.53;;
1651;SDS011;823;49.028;8.454;2022-07-22T11:56:14;8.20;;;5.97;;
1651;SDS011;823;49.028;8.454;2022-07-22T12:01:17;8.07;;;5.60;;
1651;SDS011;823;49.028;8.454;2022-07-22T12:06:18;7.13;;;5.70;;
1651;SDS011;823;49.028;8.454;2022-07-22T12:11:21;8.07;;;6.20;;
1651;SDS011;823;49.028;8.454;2022-07-22T12:16:29;9.40;;;6.20;;
1651;SDS011;823;49.028;8.454;2022-07-22T12:21:31;9.67;;;6.40;;
1651;SDS011;823;49.028;8.454;2022-07-22T12:26:40;8.53;;;6.10;;
1651;SDS011;823;49.028;8.454;2022-07-22T12:31:45;46.93;;;7.13;;
1651;SDS011;823;49.028;8.454;2022-07-22T12:36:47;7.37;;;5.80;;
1651;SDS011;823;49.028;8.454;2022-07-22T12:41:51;11.60;;;6.60;;
1651;SDS011;823;49.028;8.454;2022-07-22T12:46:55;9.33;;;6.80;;
1651;SDS011;823;49.028;8.454;2022-07-22T12:52:13;6.90;;;5.20;;
1651;SDS011;823;49.028;8.454;2022-07-22T12:57:14;7.80;;;5.80;;
1651;SDS011;823;49.028;8.454;2022-07-22T13:02:14;8.38;;;5.35;;
1651;SDS011;823;49.028;8.454;2022-07-22T13:07:14;7.90;;;6.00;;
1651;SDS011;823;49.028;8.454;2022-07-22T13:12:15;8.48;;;6.55;;
1651;SDS011;823;49.028;8.454;2022-07-22T13:17:15;8.90;;;6.20;;
1651;SDS011;823;49.028;8.454;2022-07-22T13:22:15;8.13;;;5.63;;
1651;SDS011;823;49.028;8.454;2022-07-22T13:27:16;7.77;;;5.90;;
1651;SDS011;823;49.028;8.454;2022-07-22T13:32:16;9.67;;;5.83;;
1651;SDS011;823;49.028;8.454;2022-07-22T13:37:16;9.53;;;6.23;;
1651;SDS011;823;49.028;8.454;2022-07-22T13:42:17;14.37;;;6.00;;
1651;SDS011;823;49.028;8.454;2022-07-22T13:47:18;7.60;;;5.60;;
1651;SDS011;823;49.028;8.454;2022-07-22T13:52:18;8.45;;;5.03;;
1651;SDS011;823;49.028;8.454;2022-07-22T13:57:19;8.00;;;5.78;;
1651;SDS011;823;49.028;8.454;2022-07-22T14:02:20;7.50;;;5.80;;
1651;SDS011;823;49.028;8.454;2022-07-22T14:07:20;6.23;;;5.33;;
1651;SDS011;823;49.028;8.454;2022-07-22T14:12:20;8.27;;;5.65;;
1651;SDS011;823;49.028;8.454;2022-07-22T14:17:21;7.53;;;5.50;;
1651;SDS011;823;49.028;8.454;2022-07-22T14:22:21;6.43;;;5.00;;
1651;SDS011;823;49.028;8.454;2022-07-22T14:27:21;8.45;;;6.25;;
1651;SDS011;823;49.028;8.454;2022-07-22T14:32:22;5.93;;;5.30;;
1651;SDS011;823;49.028;8.454;2022-07-22T14:37:22;6.88;;;6.00;;
1651;SDS011;823;49.028;8.454;2022-07-22T14:42:23;7.57;;;5.73;;
1651;SDS011;823;49.028;8.454;2022-07-22T14:47:24;6.80;;;5.60;;
1651;SDS011;823;49.028;8.454;2022-07-22T14:52:24;7.33;;;5.40;;
1651;SDS011;823;49.028;8.454;2022-07-22T14:57:25;9.40;;;5.70;;
1651;SDS011;823;49.028;8.454;2022-07-22T15:02:25;5.78;;;4.95;;
1651;SDS011;823;49.028;8.454;2022-07-22T15:07:25;10.07;;;6.55;;
1651;SDS011;823;49.028;8.454;2022-07-22T15:12:25;7.20;;;5.90;;
1651;SDS011;823;49.028;8.454;2022-07-22T15:17:26;11.50;;;5.88;;
1651;SDS011;823;49.028;8.454;2022-07-22T15:22:26;9.73;;;6.40;;
1651;SDS011;823;49.028;8.454;2022-07-22T15:27:27;6.40;;;5.30;;
1651;SDS011;823;49.028;8.454;2022-07-22T15:32:27;10.63;;;6.27;;
1651;SDS011;823;49.028;8.454;2022-07-22T15:37:28;8.68;;;6.47;;
1651;SDS011;823;49.028;8.454;2022-07-22T15:42:28;6.63;;;5.87;;
1651;SDS011;823;49.028;8.454;2022-07-22T15:47:29;7.57;;;5.33;;
1651;SDS011;823;49.028;8.454;2022-07-22T15:52:29;6.90;;;6.20;;
1651;SDS011;823;49.028;8.454;2022-07-22T15:57:30;9.53;;;5.80;;
1651;SDS011;823;49.028;8.454;2022-07-22T16:02:49;8.73;;;6.60;;
1651;SDS011;823;49.028;8.454;2022-07-22T16:07:49;7.57;;;5.65;;
1651;SDS011;823;49.028;8.454;2022-07-22T16:12:49;7.87;;;5.30;;
1651;SDS011;823;49.028;8.454;2022-07-22T16:17:50;8.10;;;5.95;;
1651;SDS011;823;49.028;8.454;2022-07-22T16:22:51;9.20;;;5.50;;
1651;SDS011;823;49.028;8.454;2022-07-22T16:27:51;12.63;;;6.10;;
1651;SDS011;823;49.028;8.454;2022-07-22T16:32:51;7.00;;;6.05;;
1651;SDS011;823;49.028;8.454;2022-07-22T16:37:52;8.57;;;5.60;;
1651;SDS011;823;49.028;8.454;2022-07-22T16:42:52;16.90;;;5.83;;
1651;SDS011;823;49.028;8.454;2022-07-22T16:47:52;11.17;;;6.70;;
1651;SDS011;823;49.028;8.454;2022-07-22T16:52:53;7.60;;;5.50;;
1651;SDS011;823;49.028;8.454;2022-07-22T16:57:54;9.57;;;5.70;;
1651;SDS011;823;49.028;8.454;2022-07-22T17:02:55;6.87;;;5.37;;
1651;SDS011;823;49.028;8.454;2022-07-22T17:07:55;9.20;;;6.47;;
1651;SDS011;823;49.028;8.454;2022-07-22T17:12:56;9.30;;;6.03;;
1651;SDS011;823;49.028;8.454;2022-07-22T17:17:56;6.67;;;5.50;;
1651;SDS011;823;49.028;8.454;2022-07-22T17:22:57;7.07;;;5.60;;
1651;SDS011;823;49.028;8.454;2022-07-22T17:27:59;7.80;;;6.60;;
1651;SDS011;823;49.028;8.454;2022-07-22T17:33:00;6.80;;;5.53;;
1651;SDS011;823;49.028;8.454;2022-07-22T17:38:00;6.57;;;5.70;;
1651;SDS011;823;49.028;8.454;2022-07-22T17:43:01;8.20;;;5.80;;
1651;SDS011;823;49.028;8.454;2022-07-22T17:48:01;9.50;;;6.90;;
1651;SDS011;823;49.028;8.454;2022-07-22T17:53:01;9.43;;;6.23;;
1651;SDS011;823;49.028;8.454;2022-07-22T17:58:02;7.13;;;5.67;;
1651;SDS011;823;49.028;8.454;2022-07-22T18:03:03;6.37;;;4.90;;
1651;SDS011;823;49.028;8.454;2022-07-22T18:08:04;6.17;;;5.00;;
1651;SDS011;823;49.028;8.454;2022-07-22T18:13:04;11.60;;;5.87;;
1651;SDS011;823;49.028;8.454;2022-07-22T18:18:04;13.90;;;6.20;;
1651;SDS011;823;49.028;8.454;2022-07-22T18:23:05;10.93;;;5.83;;
1651;SDS011;823;49.028;8.454;2022-07-22T18:28:05;8.63;;;6.47;;
1651;SDS011;823;49.028;8.454;2022-07-22T18:33:05;9.93;;;5.97;;
1651;SDS011;823;49.028;8.454;2022-07-22T18:38:06;23.50;;;7.30;;
1651;SDS011;823;49.028;8.454;2022-07-22T18:43:06;17.77;;;8.20;;
1651;SDS011;823;49.028;8.454;2022-07-22T18:48:06;20.77;;;8.87;;
1651;SDS011;823;49.028;8.454;2022-07-22T18:53:07;28.13;;;7.60;;
1651;SDS011;823;49.028;8.454;2022-07-22T18:58:07;16.80;;;6.77;;
1651;SDS011;823;49.028;8.454;2022-07-22T19:03:08;8.47;;;6.37;;
1651;SDS011;823;49.028;8.454;2022-07-22T19:08:08;7.70;;;6.23;;
1651;SDS011;823;49.028;8.454;2022-07-22T19:13:08;12.48;;;7.15;;
1651;SDS011;823;49.028;8.454;2022-07-22T19:18:09;17.37;;;9.13;;
1651;SDS011;823;49.028;8.454;2022-07-22T19:23:09;14.60;;;9.50;;
1651;SDS011;823;49.028;8.454;2022-07-22T19:28:13;12.52;;;8.40;;
1651;SDS011;823;49.028;8.454;2022-07-22T19:33:14;23.20;;;8.90;;
1651;SDS011;823;49.028;8.454;2022-07-22T19:38:14;16.60;;;8.33;;
1651;SDS011;823;49.028;8.454;2022-07-22T19:43:14;11.85;;;7.40;;
1651;SDS011;823;49.028;8.454;2022-07-22T19:48:15;11.90;;;8.10;;
1651;SDS011;823;49.028;8.454;2022-07-22T19:53:15;12.87;;;8.20;;
1651;SDS011;823;49.028;8.454;2022-07-22T19:58:16;11.07;;;8.20;;
1651;SDS011;823;49.028;8.454;2022-07-22T20:03:16;12.03;;;7.67;;
1651;SDS011;823;49.028;8.454;2022-07-22T20:08:17;11.13;;;7.97;;
1651;SDS011;823;49.028;8.454;2022-07-22T20:13:18;15.13;;;7.03;;
1651;SDS011;823;49.028;8.454;2022-07-22T20:18:19;14.15;;;8.55;;
1651;SDS011;823;49.028;8.454;2022-07-22T20:23:19;12.80;;;6.90;;
1651;SDS011;823;49.028;8.454;2022-07-22T20:28:19;13.10;;;7.80;;
1651;SDS011;823;49.028;8.454;2022-07-22T20:33:20;10.57;;;8.03;;
1651;SDS011;823;49.028;8.454;2022-07-22T20:38:20;11.40;;;7.90;;
1651;SDS011;823;49.028;8.454;2022-07-22T20:43:21;9.33;;;7.10;;
1651;SDS011;823;49.028;8.454;2022-07-22T20:48:21;15.90;;;7.53;;
1651;SDS011;823;49.028;8.454;2022-07-22T20:53:21;14.10;;;10.03;;
1651;SDS011;823;49.028;8.454;2022-07-22T20:58:22;19.73;;;7.80;;
1651;SDS011;823;49.028;8.454;2022-07-22T21:03:22;9.90;;;7.70;;
1651;SDS011;823;49.028;8.454;2022-07-22T21:08:22;10.47;;;7.40;;
1651;SDS011;823;49.028;8.454;2022-07-22T21:13:23;11.40;;;7.40;;
1651;SDS011;823;49.028;8.454;2022-07-22T21:18:23;9.73;;;7.50;;
1651;SDS011;823;49.028;8.454;2022-07-22T21:23:24;11.70;;;6.63;;
1651;SDS011;823;49.028;8.454;2022-07-22T21:28:24;10.18;;;6.82;;
1651;SDS011;823;49.028;8.454;2022-07-22T21:33:24;8.90;;;6.90;;
1651;SDS011;823;49.028;8.454;2022-07-22T21:38:26;15.70;;;8.70;;
1651;SDS011;823;49.028;8.454;2022-07-22T21:43:26;12.13;;;8.23;;
1651;SDS011;823;49.028;8.454;2022-07-22T21:48:26;13.17;;;7.60;;
1651;SDS011;823;49.028;8.454;2022-07-22T21:53:27;10.37;;;6.80;;
1651;SDS011;823;49.028;8.454;2022-07-22T21:58:28;10.55;;;7.10;;
1651;SDS011;823;49.028;8.454;2022-07-22T22:03:30;10.30;;;6.70;;
1651;SDS011;823;49.028;8.454;2022-07-22T22:08:30;10.80;;;7.17;;
1651;SDS011;823;49.028;8.454;2022-07-22T22:13:30;10.83;;;7.60;;
1651;SDS011;823;49.028;8.454;2022-07-22T22:18:31;10.53;;;7.23;;
1651;SDS011;823;49.028;8.454;2022-07-22T22:23:31;11.30;;;7.47;;
1651;SDS011;823;49.028;8.454;2022-07-22T22:28:32;10.02;;;8.18;;
1651;SDS011;823;49.028;8.454;2022-07-22T22:33:32;10.85;;;6.85;;
1651;SDS011;823;49.028;8.454;2022-07-22T22:38:32;12.80;;;7.50;;
1651;SDS011;823;49.028;8.454;2022-07-22T22:43:33;12.13;;;8.10;;
1651;SDS011;823;49.028;8.454;2022-07-22T22:48:33;9.50;;;7.13;;
1651;SDS011;823;49.028;8.454;2022-07-22T22:53:33;9.53;;;7.30;;
1651;SDS011;823;49.028;8.454;2022-07-22T22:58:35;16.00;;;8.00;;
1651;SDS011;823;49.028;8.454;2022-07-22T23:03:38;9.50;;;7.43;;
1651;SDS011;823;49.028;8.454;2022-07-22T23:08:38;15.93;;;8.20;;
1651;SDS011;823;49.028;8.454;2022-07-22T23:13:39;11.37;;;8.47;;
1651;SDS011;823;49.028;8.454;2022-07-22T23:18:39;13.67;;;8.47;;
1651;SDS011;823;49.028;8.454;2022-07-22T23:23:40;11.63;;;7.90;;
1651;SDS011;823;49.028;8.454;2022-07-22T23:28:40;9.83;;;7.77;;
1651;SDS011;823;49.028;8.454;2022-07-22T23:33:41;12.30;;;8.07;;
1651;SDS011;823;49.028;8.454;2022-07-22T23:38:41;12.80;;;8.10;;
1651;SDS011;823;49.028;8.454;2022-07-22T23:43:41;15.80;;;8.00;;
1651;SDS011;823;49.028;8.454;2022-07-22T23:48:42;9.70;;;7.75;;
1651;SDS011;823;49.028;8.454;2022-07-22T23:53:42;12.43;;;8.20;;
1651;SDS011;823;49.028;8.454;2022-07-22T23:58:42;12.95;;;8.10;;
